createdAt,value
2022-10-18T00:00:30.209Z,1022.60
2022-10-18T00:01:30.196Z,1022.59
2022-10-18T00:02:30.228Z,1022.61
2022-10-18T00:03:30.972Z,1022.61
2022-10-18T00:04:30.159Z,1022.61
2022-10-18T00:05:30.159Z,1022.58
2022-10-18T00:06:30.163Z,1022.61
2022-10-18T00:07:30.453Z,1022.58
2022-10-18T00:08:30.119Z,1022.59
2022-10-18T00:09:30.108Z,1022.55
2022-10-18T00:10:30.074Z,1022.60
2022-10-18T00:11:30.083Z,1022.61
2022-10-18T00:12:30.066Z,1022.60
2022-10-18T00:13:30.038Z,1022.58
2022-10-18T00:14:30.023Z,1022.58
2022-10-18T00:15:30.010Z,1022.53
2022-10-18T00:16:30.034Z,1022.64
2022-10-18T00:17:30.316Z,1022.60
2022-10-18T00:18:29.979Z,1022.58
2022-10-18T00:19:29.959Z,1022.60
2022-10-18T00:20:29.942Z,1022.59
2022-10-18T00:21:29.923Z,1022.58
2022-10-18T00:22:30.386Z,1022.63
2022-10-18T00:23:29.906Z,1022.58
2022-10-18T00:24:29.888Z,1022.59
2022-10-18T00:25:29.864Z,1022.60
2022-10-18T00:26:29.887Z,1022.52
2022-10-18T00:27:29.863Z,1022.55
2022-10-18T00:28:29.877Z,1022.61
2022-10-18T00:29:29.835Z,1022.52
2022-10-18T00:30:29.816Z,1022.55
2022-10-18T00:31:29.804Z,1022.62
2022-10-18T00:32:30.377Z,1022.58
2022-10-18T00:33:29.794Z,1022.54
2022-10-18T00:34:29.765Z,1022.51
2022-10-18T00:35:30.445Z,1022.51
2022-10-18T00:36:29.753Z,1022.51
2022-10-18T00:37:29.734Z,1022.51
2022-10-18T00:38:29.723Z,1022.53
2022-10-18T00:39:29.705Z,1022.49
2022-10-18T00:40:29.699Z,1022.53
2022-10-18T00:41:29.675Z,1022.50
2022-10-18T00:42:30.124Z,1022.46
2022-10-18T00:43:29.655Z,1022.49
2022-10-18T00:44:29.673Z,1022.51
2022-10-18T00:45:30.370Z,1022.49
2022-10-18T00:46:29.606Z,1022.44
2022-10-18T00:47:29.762Z,1022.47
2022-10-18T00:48:29.584Z,1022.46
2022-10-18T00:49:29.573Z,1022.40
2022-10-18T00:50:29.541Z,1022.44
2022-10-18T00:51:29.535Z,1022.38
2022-10-18T00:52:29.959Z,1022.35
2022-10-18T00:53:29.511Z,1022.39
2022-10-18T00:54:29.495Z,1022.33
2022-10-18T00:55:29.497Z,1022.37
2022-10-18T00:56:29.475Z,1022.33
2022-10-18T00:57:29.713Z,1022.35
2022-10-18T00:58:29.456Z,1022.32
2022-10-18T00:59:29.433Z,1022.36
2022-10-18T01:00:29.414Z,1022.36
2022-10-18T01:01:29.441Z,1022.41
2022-10-18T01:02:29.711Z,1022.41
2022-10-18T01:03:29.395Z,1022.32
2022-10-18T01:04:29.352Z,1022.33
2022-10-18T01:05:29.354Z,1022.32
2022-10-18T01:06:29.320Z,1022.30
2022-10-18T01:07:29.684Z,1022.30
2022-10-18T01:08:29.313Z,1022.29
2022-10-18T01:09:29.387Z,1022.32
2022-10-18T01:10:29.293Z,1022.29
2022-10-18T01:11:29.274Z,1022.24
2022-10-18T01:12:29.274Z,1022.22
2022-10-18T01:13:29.260Z,1022.26
2022-10-18T01:14:29.239Z,1022.18
2022-10-18T01:15:29.251Z,1022.21
2022-10-18T01:16:29.190Z,1022.21
2022-10-18T01:17:29.530Z,1022.22
2022-10-18T01:18:29.184Z,1022.23
2022-10-18T01:19:29.194Z,1022.22
2022-10-18T01:20:29.236Z,1022.20
2022-10-18T01:21:29.128Z,1022.27
2022-10-18T01:22:29.127Z,1022.21
2022-10-18T01:23:29.112Z,1022.16
2022-10-18T01:24:29.101Z,1022.11
2022-10-18T01:25:29.094Z,1022.14
2022-10-18T01:26:29.162Z,1022.20
2022-10-18T01:27:29.503Z,1022.18
2022-10-18T01:28:29.141Z,1022.19
2022-10-18T01:29:29.033Z,1022.14
2022-10-18T01:30:29.961Z,1022.16
2022-10-18T01:31:29.012Z,1022.25
2022-10-18T01:32:29.017Z,1022.20
2022-10-18T01:33:28.984Z,1022.24
2022-10-18T01:34:28.948Z,1022.19
2022-10-18T01:35:29.019Z,1022.24
2022-10-18T01:36:29.009Z,1022.24
2022-10-18T01:37:29.271Z,1022.21
2022-10-18T01:38:28.920Z,1022.24
2022-10-18T01:39:28.905Z,1022.25
2022-10-18T01:40:28.882Z,1022.22
2022-10-18T01:41:28.868Z,1022.20
2022-10-18T01:42:28.886Z,1022.24
2022-10-18T01:43:28.861Z,1022.19
2022-10-18T01:44:28.837Z,1022.21
2022-10-18T01:45:28.829Z,1022.19
2022-10-18T01:46:28.822Z,1022.18
2022-10-18T01:47:29.034Z,1022.20
2022-10-18T01:48:28.795Z,1022.20
2022-10-18T01:49:28.774Z,1022.24
2022-10-18T01:50:28.762Z,1022.25
2022-10-18T01:51:28.735Z,1022.21
2022-10-18T01:52:28.895Z,1022.29
2022-10-18T01:53:28.720Z,1022.30
2022-10-18T01:54:28.710Z,1022.27
2022-10-18T01:55:28.689Z,1022.32
2022-10-18T01:56:28.677Z,1022.31
2022-10-18T01:57:28.665Z,1022.29
2022-10-18T01:58:28.637Z,1022.32
2022-10-18T01:59:28.636Z,1022.30
2022-10-18T02:00:28.612Z,1022.31
2022-10-18T02:01:28.622Z,1022.35
2022-10-18T02:02:28.835Z,1022.30
2022-10-18T02:03:28.581Z,1022.29
2022-10-18T02:04:28.589Z,1022.27
2022-10-18T02:05:28.555Z,1022.24
2022-10-18T02:06:28.567Z,1022.22
2022-10-18T02:07:28.555Z,1022.23
2022-10-18T02:08:28.505Z,1022.22
2022-10-18T02:09:28.496Z,1022.21
2022-10-18T02:10:28.489Z,1022.19
2022-10-18T02:11:28.478Z,1022.21
2022-10-18T02:12:28.699Z,1022.16
2022-10-18T02:13:28.443Z,1022.16
2022-10-18T02:14:28.441Z,1022.16
2022-10-18T02:15:28.423Z,1022.18
2022-10-18T02:16:28.419Z,1022.16
2022-10-18T02:17:28.416Z,1022.12
2022-10-18T02:18:28.374Z,1022.17
2022-10-18T02:19:28.377Z,1022.18
2022-10-18T02:20:28.359Z,1022.11
2022-10-18T02:21:28.339Z,1022.14
2022-10-18T02:22:28.442Z,1022.18
2022-10-18T02:23:28.311Z,1022.09
2022-10-18T02:24:28.309Z,1022.08
2022-10-18T02:25:28.283Z,1022.10
2022-10-18T02:26:28.277Z,1022.06
2022-10-18T02:27:28.285Z,1022.13
2022-10-18T02:28:28.258Z,1022.01
2022-10-18T02:29:28.233Z,1022.05
2022-10-18T02:30:28.229Z,1022.06
2022-10-18T02:31:28.205Z,1022.13
2022-10-18T02:32:28.443Z,1022.12
2022-10-18T02:33:28.183Z,1022.12
2022-10-18T02:34:28.164Z,1022.15
2022-10-18T02:35:28.167Z,1022.14
2022-10-18T02:36:28.153Z,1022.17
2022-10-18T02:37:28.145Z,1022.15
2022-10-18T02:38:28.127Z,1022.23
2022-10-18T02:39:28.116Z,1022.15
2022-10-18T02:40:28.106Z,1022.15
2022-10-18T02:41:28.073Z,1022.20
2022-10-18T02:42:28.074Z,1022.14
2022-10-18T02:43:28.074Z,1022.19
2022-10-18T02:44:28.043Z,1022.19
2022-10-18T02:45:28.039Z,1022.15
2022-10-18T02:46:28.046Z,1022.16
2022-10-18T02:47:28.179Z,1022.19
2022-10-18T02:48:28.000Z,1022.20
2022-10-18T02:49:27.987Z,1022.22
2022-10-18T02:50:27.983Z,1022.22
2022-10-18T02:51:27.943Z,1022.24
2022-10-18T02:52:27.935Z,1022.29
2022-10-18T02:53:27.950Z,1022.24
2022-10-18T02:54:27.924Z,1022.27
2022-10-18T02:56:27.871Z,1022.21
2022-10-18T02:57:27.872Z,1022.22
2022-10-18T02:58:27.885Z,1022.22
2022-10-18T02:59:27.846Z,1022.21
2022-10-18T03:00:27.836Z,1022.27
2022-10-18T03:01:27.855Z,1022.21
2022-10-18T03:02:27.802Z,1022.27
2022-10-18T03:03:27.806Z,1022.27
2022-10-18T03:05:27.758Z,1022.26
2022-10-18T03:06:27.759Z,1022.33
2022-10-18T03:07:27.730Z,1022.32
2022-10-18T03:08:27.743Z,1022.32
2022-10-18T03:09:27.714Z,1022.32
2022-10-18T03:10:27.690Z,1022.29
2022-10-18T03:11:27.673Z,1022.27
2022-10-18T03:12:27.661Z,1022.26
2022-10-18T03:13:27.695Z,1022.28
2022-10-18T03:14:27.652Z,1022.28
2022-10-18T03:15:27.632Z,1022.29
2022-10-18T03:16:27.631Z,1022.32
2022-10-18T03:17:27.615Z,1022.32
2022-10-18T03:18:27.623Z,1022.35
2022-10-18T03:19:27.570Z,1022.30
2022-10-18T03:20:27.573Z,1022.31
2022-10-18T03:21:27.564Z,1022.30
2022-10-18T03:23:27.529Z,1022.28
2022-10-18T03:24:27.507Z,1022.29
2022-10-18T03:25:27.489Z,1022.31
2022-10-18T03:26:27.480Z,1022.31
2022-10-18T03:27:27.511Z,1022.29
2022-10-18T03:28:27.504Z,1022.29
2022-10-18T03:29:27.453Z,1022.27
2022-10-18T03:30:27.443Z,1022.24
2022-10-18T03:31:27.474Z,1022.28
2022-10-18T03:32:27.410Z,1022.26
2022-10-18T03:33:27.409Z,1022.31
2022-10-18T03:34:27.392Z,1022.26
2022-10-18T03:35:27.368Z,1022.27
2022-10-18T03:36:27.358Z,1022.31
2022-10-18T03:37:27.337Z,1022.22
2022-10-18T03:38:27.339Z,1022.25
2022-10-18T03:39:27.309Z,1022.30
2022-10-18T03:40:27.371Z,1022.31
2022-10-18T03:41:27.340Z,1022.21
2022-10-18T03:42:27.275Z,1022.22
2022-10-18T03:43:27.290Z,1022.26
2022-10-18T03:44:27.258Z,1022.24
2022-10-18T03:45:30.424Z,1022.24
2022-10-18T03:46:27.229Z,1022.24
2022-10-18T03:47:27.223Z,1022.23
2022-10-18T03:48:27.223Z,1022.21
2022-10-18T03:49:27.242Z,1022.18
2022-10-18T03:50:27.173Z,1022.19
2022-10-18T03:51:27.158Z,1022.17
2022-10-18T03:52:27.140Z,1022.13
2022-10-18T03:53:27.177Z,1022.12
2022-10-18T03:54:27.119Z,1022.09
2022-10-18T03:55:27.128Z,1022.12
2022-10-18T03:56:27.129Z,1022.17
2022-10-18T03:57:27.091Z,1022.11
2022-10-18T03:58:27.131Z,1022.20
2022-10-18T03:59:27.056Z,1022.14
2022-10-18T04:00:27.042Z,1022.14
2022-10-18T04:01:27.082Z,1022.15
2022-10-18T04:02:27.022Z,1022.11
2022-10-18T04:03:27.029Z,1022.06
2022-10-18T04:04:27.002Z,1022.12
2022-10-18T04:05:26.968Z,1022.12
2022-10-18T04:06:26.980Z,1022.06
2022-10-18T04:07:26.996Z,1022.10
2022-10-18T04:08:26.956Z,1022.18
2022-10-18T04:09:26.924Z,1022.19
2022-10-18T04:10:26.928Z,1022.18
2022-10-18T04:11:26.896Z,1022.16
2022-10-18T04:12:26.887Z,1022.16
2022-10-18T04:13:26.882Z,1022.19
2022-10-18T04:14:26.849Z,1022.27
2022-10-18T04:15:26.858Z,1022.23
2022-10-18T04:16:26.916Z,1022.17
2022-10-18T04:17:26.841Z,1022.24
2022-10-18T04:18:26.822Z,1022.29
2022-10-18T04:19:26.826Z,1022.20
2022-10-18T04:20:26.799Z,1022.23
2022-10-18T04:21:26.787Z,1022.20
2022-10-18T04:22:26.761Z,1022.16
2022-10-18T04:23:26.779Z,1022.20
2022-10-18T04:24:26.734Z,1022.10
2022-10-18T04:25:26.738Z,1022.12
2022-10-18T04:26:26.711Z,1022.11
2022-10-18T04:27:26.684Z,1022.10
2022-10-18T04:28:26.729Z,1022.11
2022-10-18T04:29:26.688Z,1022.11
2022-10-18T04:30:26.659Z,1022.16
2022-10-18T04:31:26.634Z,1022.18
2022-10-18T04:32:26.637Z,1022.15
2022-10-18T04:33:26.614Z,1022.17
2022-10-18T04:34:26.608Z,1022.15
2022-10-18T04:35:26.603Z,1022.22
2022-10-18T04:36:26.588Z,1022.27
2022-10-18T04:37:26.554Z,1022.26
2022-10-18T04:38:26.567Z,1022.25
2022-10-18T04:39:26.550Z,1022.25
2022-10-18T04:40:26.526Z,1022.21
2022-10-18T04:41:26.526Z,1022.26
2022-10-18T04:42:26.491Z,1022.20
2022-10-18T04:43:26.494Z,1022.18
2022-10-18T04:44:26.476Z,1022.14
2022-10-18T04:45:26.469Z,1022.19
2022-10-18T04:46:26.457Z,1022.17
2022-10-18T04:47:26.425Z,1022.20
2022-10-18T04:48:26.436Z,1022.24
2022-10-18T04:49:26.403Z,1022.31
2022-10-18T04:50:26.394Z,1022.26
2022-10-18T04:51:26.391Z,1022.27
2022-10-18T04:52:26.362Z,1022.27
2022-10-18T04:53:26.356Z,1022.30
2022-10-18T04:54:28.547Z,1022.31
2022-10-18T04:55:26.326Z,1022.30
2022-10-18T04:56:26.339Z,1022.35
2022-10-18T04:57:26.291Z,1022.29
2022-10-18T04:58:26.300Z,1022.24
2022-10-18T04:59:26.276Z,1022.29
2022-10-18T05:00:26.256Z,1022.33
2022-10-18T05:01:26.283Z,1022.33
2022-10-18T05:02:26.230Z,1022.32
2022-10-18T05:03:26.238Z,1022.36
2022-10-18T05:04:26.205Z,1022.37
2022-10-18T05:05:37.919Z,1022.40
2022-10-18T05:06:27.185Z,1022.35
2022-10-18T05:07:26.173Z,1022.40
2022-10-18T05:08:26.183Z,1022.37
2022-10-18T05:09:26.144Z,1022.43
2022-10-18T05:10:26.126Z,1022.49
2022-10-18T05:11:26.123Z,1022.50
2022-10-18T05:12:26.102Z,1022.45
2022-10-18T05:13:26.106Z,1022.45
2022-10-18T05:14:26.093Z,1022.55
2022-10-18T05:15:26.054Z,1022.51
2022-10-18T05:16:26.043Z,1022.56
2022-10-18T05:17:26.035Z,1022.51
2022-10-18T05:18:26.030Z,1022.49
2022-10-18T05:19:26.025Z,1022.50
2022-10-18T05:20:25.992Z,1022.50
2022-10-18T05:21:25.978Z,1022.48
2022-10-18T05:22:25.985Z,1022.42
2022-10-18T05:23:25.980Z,1022.42
2022-10-18T05:24:27.713Z,1022.48
2022-10-18T05:25:25.941Z,1022.48
2022-10-18T05:26:25.935Z,1022.42
2022-10-18T05:27:25.899Z,1022.49
2022-10-18T05:28:41.643Z,1022.55
2022-10-18T05:30:25.874Z,1022.48
2022-10-18T05:31:25.840Z,1022.50
2022-10-18T05:32:25.841Z,1022.53
2022-10-18T05:33:25.843Z,1022.56
2022-10-18T05:34:25.810Z,1022.61
2022-10-18T05:35:25.803Z,1022.56
2022-10-18T05:36:25.802Z,1022.60
2022-10-18T05:37:28.314Z,1022.55
2022-10-18T05:38:25.819Z,1022.55
2022-10-18T05:39:25.764Z,1022.50
2022-10-18T05:40:26.737Z,1022.62
2022-10-18T05:41:25.767Z,1022.58
2022-10-18T05:42:25.787Z,1022.57
2022-10-18T05:43:25.740Z,1022.60
2022-10-18T05:44:25.763Z,1022.57
2022-10-18T05:45:25.880Z,1022.55
2022-10-18T05:46:25.858Z,1022.60
2022-10-18T05:47:25.689Z,1022.61
2022-10-18T05:48:25.652Z,1022.55
2022-10-18T05:49:25.616Z,1022.62
2022-10-18T05:50:25.660Z,1022.57
2022-10-18T05:51:25.601Z,1022.63
2022-10-18T05:52:25.568Z,1022.62
2022-10-18T05:53:36.182Z,1022.62
2022-10-18T05:55:37.273Z,1022.61
2022-10-18T05:56:35.508Z,1022.60
2022-10-18T05:57:35.568Z,1022.66
2022-10-18T05:58:35.457Z,1022.62
2022-10-18T05:59:35.499Z,1022.68
2022-10-18T06:00:35.422Z,1022.66
2022-10-18T06:01:35.410Z,1022.69
2022-10-18T06:02:35.494Z,1022.67
2022-10-18T06:03:35.391Z,1022.67
2022-10-18T06:04:35.740Z,1022.70
2022-10-18T06:05:35.405Z,1022.78
2022-10-18T06:06:35.363Z,1022.65
2022-10-18T06:07:35.624Z,1022.69
2022-10-18T06:08:35.333Z,1022.70
2022-10-18T06:09:35.322Z,1022.62
2022-10-18T06:10:35.313Z,1022.65
2022-10-18T06:11:35.286Z,1022.66
2022-10-18T06:12:35.285Z,1022.65
2022-10-18T06:13:35.290Z,1022.66
2022-10-18T06:14:35.253Z,1022.66
2022-10-18T06:15:35.250Z,1022.64
2022-10-18T06:17:35.531Z,1022.68
2022-10-18T06:18:35.208Z,1022.67
2022-10-18T06:19:35.198Z,1022.61
2022-10-18T06:20:35.158Z,1022.66
2022-10-18T06:21:35.182Z,1022.62
2022-10-18T06:22:35.152Z,1022.62
2022-10-18T06:23:35.149Z,1022.63
2022-10-18T06:24:35.121Z,1022.62
2022-10-18T06:25:35.110Z,1022.60
2022-10-18T06:26:35.122Z,1022.59
2022-10-18T06:27:35.316Z,1022.57
2022-10-18T06:28:35.147Z,1022.59
2022-10-18T06:29:35.045Z,1022.64
2022-10-18T06:30:35.058Z,1022.65
2022-10-18T06:31:35.062Z,1022.68
2022-10-18T06:32:35.007Z,1022.72
2022-10-18T06:33:35.007Z,1022.73
2022-10-18T06:34:34.990Z,1022.73
2022-10-18T06:35:34.998Z,1022.75
2022-10-18T06:36:34.969Z,1022.79
2022-10-18T06:37:35.380Z,1022.81
2022-10-18T06:38:34.960Z,1022.88
2022-10-18T06:39:34.955Z,1022.76
2022-10-18T06:40:34.935Z,1022.81
2022-10-18T06:41:34.888Z,1022.81
2022-10-18T06:42:35.192Z,1022.77
2022-10-18T06:43:34.875Z,1022.86
2022-10-18T06:44:34.857Z,1022.81
2022-10-18T06:45:34.842Z,1022.87
2022-10-18T06:46:34.815Z,1022.87
2022-10-18T06:47:34.805Z,1022.89
2022-10-18T06:48:34.818Z,1022.87
2022-10-18T06:49:34.783Z,1022.87
2022-10-18T06:50:34.776Z,1022.89
2022-10-18T06:51:34.770Z,1022.85
2022-10-18T06:52:35.022Z,1022.88
2022-10-18T06:53:34.756Z,1022.87
2022-10-18T06:54:34.729Z,1022.88
2022-10-18T06:55:34.737Z,1022.87
2022-10-18T06:56:34.686Z,1022.93
2022-10-18T06:57:34.731Z,1022.88
2022-10-18T06:58:34.709Z,1022.98
2022-10-18T06:59:34.667Z,1022.97
2022-10-18T07:00:34.648Z,1023.03
2022-10-18T07:01:34.804Z,1023.03
2022-10-18T07:02:34.848Z,1023.01
2022-10-18T07:03:34.625Z,1023.08
2022-10-18T07:04:34.584Z,1023.00
2022-10-18T07:05:34.595Z,1023.03
2022-10-18T07:06:34.585Z,1022.99
2022-10-18T07:07:34.875Z,1022.98
2022-10-18T07:08:34.566Z,1023.02
2022-10-18T07:09:34.515Z,1023.00
2022-10-18T07:10:34.520Z,1023.04
2022-10-18T07:11:34.494Z,1023.03
2022-10-18T07:12:34.487Z,1023.06
2022-10-18T07:13:34.502Z,1023.05
2022-10-18T07:14:34.455Z,1023.09
2022-10-18T07:15:34.482Z,1023.09
2022-10-18T07:16:34.465Z,1023.07
2022-10-18T07:17:34.722Z,1023.07
2022-10-18T07:18:34.415Z,1023.12
2022-10-18T07:19:34.384Z,1023.08
2022-10-18T07:20:34.385Z,1023.07
2022-10-18T07:21:34.396Z,1023.07
2022-10-18T07:22:34.356Z,1023.16
2022-10-18T07:23:34.370Z,1023.12
2022-10-18T07:24:34.342Z,1023.21
2022-10-18T07:25:34.325Z,1023.17
2022-10-18T07:26:34.322Z,1023.22
2022-10-18T07:27:34.660Z,1023.25
2022-10-18T07:28:34.357Z,1023.26
2022-10-18T07:29:34.265Z,1023.29
2022-10-18T07:30:34.234Z,1023.34
2022-10-18T07:31:34.235Z,1023.34
2022-10-18T07:32:34.223Z,1023.38
2022-10-18T07:33:34.226Z,1023.36
2022-10-18T07:34:34.202Z,1023.36
2022-10-18T07:35:34.474Z,1023.39
2022-10-18T07:36:34.155Z,1023.43
2022-10-18T07:37:34.466Z,1023.41
2022-10-18T07:38:34.145Z,1023.44
2022-10-18T07:39:34.132Z,1023.42
2022-10-18T07:40:34.099Z,1023.47
2022-10-18T07:41:34.095Z,1023.48
2022-10-18T07:42:34.071Z,1023.49
2022-10-18T07:43:34.093Z,1023.45
2022-10-18T07:44:34.062Z,1023.50
2022-10-18T07:45:34.104Z,1023.44
2022-10-18T07:46:34.053Z,1023.50
2022-10-18T07:47:35.290Z,1023.48
2022-10-18T07:48:34.034Z,1023.50
2022-10-18T07:49:34.004Z,1023.47
2022-10-18T07:50:33.983Z,1023.49
2022-10-18T07:51:33.975Z,1023.55
2022-10-18T07:52:33.973Z,1023.59
2022-10-18T07:53:33.948Z,1023.60
2022-10-18T07:54:33.922Z,1023.61
2022-10-18T07:55:33.920Z,1023.68
2022-10-18T07:56:33.908Z,1023.63
2022-10-18T07:57:34.188Z,1023.68
2022-10-18T07:58:33.874Z,1023.67
2022-10-18T07:59:33.903Z,1023.74
2022-10-18T08:00:33.836Z,1023.72
2022-10-18T08:01:33.863Z,1023.75
2022-10-18T08:02:33.842Z,1023.73
2022-10-18T08:03:33.831Z,1023.75
2022-10-18T08:04:33.800Z,1023.71
2022-10-18T08:05:33.792Z,1023.66
2022-10-18T08:06:33.771Z,1023.73
2022-10-18T08:07:34.205Z,1023.72
2022-10-18T08:08:33.780Z,1023.69
2022-10-18T08:09:33.731Z,1023.69
2022-10-18T08:10:33.708Z,1023.69
2022-10-18T08:11:33.721Z,1023.68
2022-10-18T08:12:33.701Z,1023.64
2022-10-18T08:13:33.691Z,1023.64
2022-10-18T08:14:33.656Z,1023.67
2022-10-18T08:15:33.661Z,1023.68
2022-10-18T08:16:33.752Z,1023.67
2022-10-18T08:17:33.857Z,1023.66
2022-10-18T08:18:33.631Z,1023.66
2022-10-18T08:19:33.587Z,1023.69
2022-10-18T08:20:33.583Z,1023.70
2022-10-18T08:21:33.581Z,1023.73
2022-10-18T08:22:33.553Z,1023.72
2022-10-18T08:23:33.570Z,1023.73
2022-10-18T08:24:33.540Z,1023.81
2022-10-18T08:25:33.566Z,1023.74
2022-10-18T08:26:33.509Z,1023.78
2022-10-18T08:27:33.896Z,1023.77
2022-10-18T08:28:33.504Z,1023.86
2022-10-18T08:29:33.527Z,1023.84
2022-10-18T08:30:33.461Z,1023.92
2022-10-18T08:31:33.466Z,1023.90
2022-10-18T08:32:33.810Z,1023.87
2022-10-18T08:33:33.427Z,1023.90
2022-10-18T08:34:33.450Z,1023.90
2022-10-18T08:35:33.397Z,1023.92
2022-10-18T08:36:33.379Z,1024.00
2022-10-18T08:37:33.850Z,1023.97
2022-10-18T08:38:33.380Z,1023.97
2022-10-18T08:39:33.334Z,1023.96
2022-10-18T08:40:33.323Z,1023.97
2022-10-18T08:41:33.309Z,1023.99
2022-10-18T08:42:33.887Z,1023.98
2022-10-18T08:43:33.369Z,1024.06
2022-10-18T08:44:33.255Z,1024.03
2022-10-18T08:45:47.413Z,1024.01
2022-10-18T08:46:34.248Z,1024.01
2022-10-18T08:47:33.696Z,1024.03
2022-10-18T08:48:33.237Z,1024.10
2022-10-18T08:49:33.196Z,1024.09
2022-10-18T08:50:33.200Z,1024.11
2022-10-18T08:51:33.209Z,1024.13
2022-10-18T08:52:33.215Z,1024.15
2022-10-18T08:53:35.103Z,1024.20
2022-10-18T08:54:33.161Z,1024.22
2022-10-18T08:55:33.146Z,1024.20
2022-10-18T08:56:33.095Z,1024.17
2022-10-18T08:57:33.649Z,1024.21
2022-10-18T08:58:33.100Z,1024.19
2022-10-18T08:59:33.078Z,1024.24
2022-10-18T09:00:33.068Z,1024.18
2022-10-18T09:01:33.092Z,1024.22
2022-10-18T09:02:33.522Z,1024.24
2022-10-18T09:03:33.076Z,1024.22
2022-10-18T09:04:33.007Z,1024.24
2022-10-18T09:05:32.998Z,1024.29
2022-10-18T09:06:33.044Z,1024.25
2022-10-18T09:07:32.953Z,1024.24
2022-10-18T09:08:32.996Z,1024.29
2022-10-18T09:09:32.953Z,1024.27
2022-10-18T09:10:32.933Z,1024.29
2022-10-18T09:11:32.920Z,1024.28
2022-10-18T09:12:33.389Z,1024.23
2022-10-18T09:13:32.893Z,1024.27
2022-10-18T09:14:32.864Z,1024.28
2022-10-18T09:15:32.852Z,1024.18
2022-10-18T09:16:32.875Z,1024.23
2022-10-18T09:17:32.823Z,1024.19
2022-10-18T09:18:32.843Z,1024.23
2022-10-18T09:19:32.826Z,1024.19
2022-10-18T09:20:32.792Z,1024.23
2022-10-18T09:21:32.773Z,1024.33
2022-10-18T09:22:33.193Z,1024.25
2022-10-18T09:23:32.768Z,1024.28
2022-10-18T09:24:32.736Z,1024.26
2022-10-18T09:25:32.736Z,1024.27
2022-10-18T09:26:32.751Z,1024.26
2022-10-18T09:27:32.729Z,1024.24
2022-10-18T09:28:32.771Z,1024.25
2022-10-18T09:29:32.689Z,1024.30
2022-10-18T09:30:32.680Z,1024.25
2022-10-18T09:31:32.668Z,1024.28
2022-10-18T09:32:33.084Z,1024.26
2022-10-18T09:33:32.653Z,1024.29
2022-10-18T09:34:32.616Z,1024.31
2022-10-18T09:35:32.608Z,1024.33
2022-10-18T09:36:32.573Z,1024.33
2022-10-18T09:37:32.625Z,1024.31
2022-10-18T09:38:32.579Z,1024.35
2022-10-18T09:39:32.537Z,1024.33
2022-10-18T09:40:32.544Z,1024.36
2022-10-18T09:41:32.542Z,1024.39
2022-10-18T09:42:32.811Z,1024.37
2022-10-18T09:43:32.520Z,1024.41
2022-10-18T09:44:32.501Z,1024.42
2022-10-18T09:45:32.589Z,1024.38
2022-10-18T09:46:32.439Z,1024.44
2022-10-18T09:47:32.425Z,1024.42
2022-10-18T09:48:32.454Z,1024.34
2022-10-18T09:49:32.430Z,1024.40
2022-10-18T09:50:32.400Z,1024.40
2022-10-18T09:51:32.372Z,1024.37
2022-10-18T09:52:32.658Z,1024.39
2022-10-18T09:53:32.391Z,1024.39
2022-10-18T09:54:32.354Z,1024.40
2022-10-18T09:55:32.331Z,1024.40
2022-10-18T09:56:39.414Z,1024.41
2022-10-18T09:57:33.666Z,1024.46
2022-10-18T09:58:32.344Z,1024.45
2022-10-18T09:59:32.283Z,1024.50
2022-10-18T10:00:32.286Z,1024.51
2022-10-18T10:01:32.244Z,1024.51
2022-10-18T10:02:32.302Z,1024.52
2022-10-18T10:03:32.247Z,1024.52
2022-10-18T10:04:32.211Z,1024.51
2022-10-18T10:05:32.202Z,1024.53
2022-10-18T10:06:32.184Z,1024.50
2022-10-18T10:07:34.795Z,1024.50
2022-10-18T10:08:32.192Z,1024.51
2022-10-18T10:09:32.138Z,1024.56
2022-10-18T10:10:32.149Z,1024.58
2022-10-18T10:11:32.120Z,1024.59
2022-10-18T10:12:32.100Z,1024.55
2022-10-18T10:13:32.113Z,1024.51
2022-10-18T10:14:32.095Z,1024.48
2022-10-18T10:15:35.444Z,1024.57
2022-10-18T10:16:33.059Z,1024.56
2022-10-18T10:17:32.300Z,1024.58
2022-10-18T10:18:32.052Z,1024.61
2022-10-18T10:19:32.012Z,1024.60
2022-10-18T10:20:31.995Z,1024.62
2022-10-18T10:21:32.017Z,1024.66
2022-10-18T10:22:31.991Z,1024.61
2022-10-18T10:23:31.959Z,1024.67
2022-10-18T10:24:31.973Z,1024.63
2022-10-18T10:25:31.940Z,1024.61
2022-10-18T10:26:31.962Z,1024.57
2022-10-18T10:27:32.297Z,1024.54
2022-10-18T10:28:31.914Z,1024.59
2022-10-18T10:29:44.227Z,1024.64
2022-10-18T10:30:32.871Z,1024.67
2022-10-18T10:31:31.847Z,1024.65
2022-10-18T10:32:31.829Z,1024.66
2022-10-18T10:33:31.817Z,1024.68
2022-10-18T10:34:31.839Z,1024.69
2022-10-18T10:36:32.779Z,1024.70
2022-10-18T10:37:32.022Z,1024.66
2022-10-18T10:38:31.784Z,1024.71
2022-10-18T10:39:31.754Z,1024.73
2022-10-18T10:40:31.740Z,1024.72
2022-10-18T10:42:31.964Z,1024.76
2022-10-18T10:43:37.475Z,1024.77
2022-10-18T10:44:32.697Z,1024.77
2022-10-18T10:45:31.658Z,1024.70
2022-10-18T10:46:31.656Z,1024.71
2022-10-18T10:47:31.637Z,1024.73
2022-10-18T10:48:33.353Z,1024.72
2022-10-18T10:49:40.781Z,1024.72
2022-10-18T10:51:31.600Z,1024.70
2022-10-18T10:52:31.576Z,1024.67
2022-10-18T10:53:31.582Z,1024.74
2022-10-18T10:54:31.544Z,1024.70
2022-10-18T10:55:35.249Z,1024.69
2022-10-18T10:56:31.566Z,1024.69
2022-10-18T10:57:31.500Z,1024.66
2022-10-18T10:58:31.487Z,1024.69
2022-10-18T10:59:31.554Z,1024.69
2022-10-18T11:00:31.489Z,1024.67
2022-10-18T11:01:31.458Z,1024.65
2022-10-18T11:02:32.005Z,1024.73
2022-10-18T11:03:31.503Z,1024.62
2022-10-18T11:04:31.406Z,1024.63
2022-10-18T11:05:31.416Z,1024.71
2022-10-18T11:06:31.399Z,1024.67
2022-10-18T11:07:31.414Z,1024.65
2022-10-18T11:08:31.435Z,1024.67
2022-10-18T11:09:31.362Z,1024.65
2022-10-18T11:10:31.344Z,1024.66
2022-10-18T11:11:31.332Z,1024.73
2022-10-18T11:12:31.579Z,1024.68
2022-10-18T11:13:31.285Z,1024.69
2022-10-18T11:14:31.297Z,1024.70
2022-10-18T11:15:31.274Z,1024.68
2022-10-18T11:16:31.257Z,1024.69
2022-10-18T11:17:31.243Z,1024.70
2022-10-18T11:18:31.223Z,1024.75
2022-10-18T11:19:31.203Z,1024.75
2022-10-18T11:20:31.220Z,1024.78
2022-10-18T11:21:31.189Z,1024.72
2022-10-18T11:22:31.391Z,1024.68
2022-10-18T11:23:31.183Z,1024.76
2022-10-18T11:24:31.181Z,1024.72
2022-10-18T11:25:31.154Z,1024.67
2022-10-18T11:26:31.144Z,1024.70
2022-10-18T11:27:31.114Z,1024.70
2022-10-18T11:28:31.159Z,1024.68
2022-10-18T11:29:31.083Z,1024.67
2022-10-18T11:30:31.086Z,1024.73
2022-10-18T11:31:31.055Z,1024.70
2022-10-18T11:32:32.321Z,1024.67
2022-10-18T11:33:56.332Z,1024.70
2022-10-18T11:34:32.021Z,1024.72
2022-10-18T11:35:31.004Z,1024.73
2022-10-18T11:36:32.120Z,1024.64
2022-10-18T11:37:34.529Z,1024.68
2022-10-18T11:38:31.967Z,1024.63
2022-10-18T11:39:30.934Z,1024.64
2022-10-18T11:40:30.957Z,1024.67
2022-10-18T11:41:30.940Z,1024.62
2022-10-18T11:42:30.925Z,1024.61
2022-10-18T11:43:57.126Z,1024.57
2022-10-18T11:44:31.889Z,1024.57
2022-10-18T11:46:30.850Z,1024.56
2022-10-18T11:47:31.072Z,1024.61
2022-10-18T11:48:31.181Z,1024.60
2022-10-18T11:49:30.813Z,1024.57
2022-10-18T11:50:30.832Z,1024.56
2022-10-18T11:51:38.670Z,1024.62
2022-10-18T11:52:31.781Z,1024.55
2022-10-18T11:53:30.809Z,1024.56
2022-10-18T11:54:30.815Z,1024.54
2022-10-18T11:55:32.980Z,1024.58
2022-10-18T11:56:30.715Z,1024.49
2022-10-18T11:57:31.188Z,1024.53
2022-10-18T11:58:30.711Z,1024.54
2022-10-18T11:59:30.683Z,1024.51
2022-10-18T12:00:39.438Z,1024.50
2022-10-18T12:01:31.125Z,1024.43
2022-10-18T12:02:31.067Z,1024.50
2022-10-18T12:03:30.668Z,1024.46
2022-10-18T12:04:30.607Z,1024.49
2022-10-18T12:05:30.608Z,1024.43
2022-10-18T12:06:30.592Z,1024.48
2022-10-18T12:07:32.519Z,1024.46
2022-10-18T12:08:30.587Z,1024.47
2022-10-18T12:09:30.555Z,1024.49
2022-10-18T12:10:44.493Z,1024.46
2022-10-18T12:11:31.527Z,1024.45
2022-10-18T12:12:30.851Z,1024.46
2022-10-18T12:13:30.502Z,1024.50
2022-10-18T12:14:30.493Z,1024.44
2022-10-18T12:15:30.490Z,1024.39